createdAt,value
2019-02-23T00:00:02.680Z,2.64
2019-02-23T00:02:31.827Z,2.56
2019-02-23T00:05:00.704Z,2.47
2019-02-23T00:07:30.491Z,2.39
2019-02-23T00:10:00.660Z,2.32
2019-02-23T00:12:30.954Z,2.42
2019-02-23T00:14:59.682Z,2.34
2019-02-23T00:17:31.692Z,2.27
2019-02-23T00:20:01.955Z,2.21
2019-02-23T00:22:34.057Z,2.16
2019-02-23T00:25:02.605Z,2.07
2019-02-23T00:27:35.051Z,1.97
2019-02-23T00:30:03.922Z,2.01
2019-02-23T00:32:32.841Z,1.95
2019-02-23T00:35:02.220Z,1.99
2019-02-23T00:37:32.282Z,2.02
2019-02-23T00:40:07.442Z,1.96
2019-02-23T00:42:39.274Z,2.04
2019-02-23T00:45:08.190Z,1.96
2019-02-23T00:47:38.673Z,2.09
2019-02-23T00:50:07.752Z,2.14
2019-02-23T00:52:37.959Z,2.19
2019-02-23T00:55:06.993Z,2.16
2019-02-23T00:57:36.061Z,2.14
2019-02-23T01:00:07.439Z,2.12
2019-02-23T01:02:36.741Z,2.04
2019-02-23T01:05:06.318Z,2.06
2019-02-23T01:07:38.195Z,2.11
2019-02-23T01:10:12.093Z,2.08
2019-02-23T01:12:45.242Z,2.15
2019-02-23T01:15:19.023Z,2.04
2019-02-23T01:17:49.531Z,2.07
2019-02-23T01:20:19.737Z,2.07
2019-02-23T01:22:48.677Z,2.02
2019-02-23T01:25:22.387Z,1.88
2019-02-23T01:27:52.658Z,1.92
2019-02-23T01:30:22.933Z,1.86
2019-02-23T01:32:51.900Z,1.89
2019-02-23T01:35:22.546Z,1.88
2019-02-23T01:37:52.166Z,1.95
2019-02-23T01:40:21.242Z,1.96
2019-02-23T01:42:50.360Z,1.88
2019-02-23T01:45:22.388Z,1.86
2019-02-23T01:47:50.964Z,1.87
2019-02-23T01:50:23.463Z,1.91
2019-02-23T01:52:55.009Z,1.87
2019-02-23T01:55:24.119Z,1.84
2019-02-23T01:57:54.634Z,1.87
2019-02-23T02:00:24.013Z,1.78
2019-02-23T02:02:53.132Z,1.75
2019-02-23T02:05:25.663Z,1.75
2019-02-23T02:07:56.272Z,1.68
2019-02-23T02:10:24.817Z,1.69
2019-02-23T02:12:58.480Z,1.56
2019-02-23T02:15:27.420Z,1.65
2019-02-23T02:17:56.528Z,1.64
2019-02-23T02:20:27.561Z,1.59
2019-02-23T02:22:59.646Z,1.63
2019-02-23T02:25:28.704Z,1.54
2019-02-23T02:27:58.944Z,1.50
2019-02-23T02:30:27.499Z,1.45
2019-02-23T02:32:56.960Z,1.52
2019-02-23T02:35:25.996Z,1.33
2019-02-23T02:37:55.126Z,1.32
2019-02-23T02:40:27.598Z,1.35
2019-02-23T02:42:56.753Z,1.33
2019-02-23T02:45:28.932Z,1.36
2019-02-23T02:48:01.182Z,1.35
2019-02-23T02:50:29.752Z,1.36
2019-02-23T02:53:02.402Z,1.24
2019-02-23T02:55:33.276Z,1.14
2019-02-23T02:58:06.810Z,1.21
2019-02-23T03:00:36.757Z,1.27
2019-02-23T03:03:07.614Z,1.27
2019-02-23T03:05:36.821Z,1.18
2019-02-23T03:08:05.779Z,1.24
2019-02-23T03:10:35.685Z,1.33
2019-02-23T03:13:09.369Z,1.28
2019-02-23T03:15:40.351Z,1.11
2019-02-23T03:18:12.800Z,0.86
2019-02-23T03:20:43.149Z,0.72
2019-02-23T03:23:12.648Z,0.78
2019-02-23T03:25:44.068Z,0.83
2019-02-23T03:28:19.646Z,0.84
2019-02-23T03:30:51.913Z,0.87
2019-02-23T03:33:22.155Z,0.76
2019-02-23T03:35:51.577Z,0.61
2019-02-23T03:38:25.188Z,1.09
2019-02-23T03:40:58.926Z,1.18
2019-02-23T03:43:28.030Z,1.21
2019-02-23T03:45:58.887Z,1.24
2019-02-23T03:48:29.599Z,1.25
2019-02-23T03:51:03.281Z,1.19
2019-02-23T03:53:32.206Z,1.11
2019-02-23T03:56:03.284Z,1.06
2019-02-23T03:58:31.844Z,1.10
2019-02-23T04:01:01.152Z,1.02
2019-02-23T04:03:31.559Z,1.07
2019-02-23T04:06:08.165Z,1.01
2019-02-23T04:08:39.906Z,0.90
2019-02-23T04:11:08.827Z,0.83
2019-02-23T04:13:39.033Z,0.79
2019-02-23T04:16:12.212Z,0.76
2019-02-23T04:18:44.058Z,0.71
2019-02-23T04:21:13.588Z,0.76
2019-02-23T04:23:44.934Z,0.71
2019-02-23T04:26:13.688Z,0.68
2019-02-23T04:28:45.369Z,0.69
2019-02-23T04:31:13.959Z,0.61
2019-02-23T04:33:44.859Z,0.54
2019-02-23T04:36:13.702Z,0.51
2019-02-23T04:38:42.968Z,0.31
2019-02-23T04:41:11.892Z,0.23
2019-02-23T04:43:44.346Z,0.23
2019-02-23T04:46:13.345Z,0.32
2019-02-23T04:48:45.653Z,0.31
2019-02-23T04:51:15.599Z,0.10
2019-02-23T04:53:45.908Z,0.13
2019-02-23T04:56:14.886Z,0.00
2019-02-23T04:58:44.802Z,-0.04
2019-02-23T05:01:13.552Z,-0.05
2019-02-23T05:03:42.263Z,-0.20
2019-02-23T05:06:11.387Z,-0.24
2019-02-23T05:08:40.608Z,-0.14
2019-02-23T05:11:16.302Z,-0.01
2019-02-23T05:13:46.481Z,-0.13
2019-02-23T05:16:20.196Z,-0.18
2019-02-23T05:18:50.897Z,-0.19
2019-02-23T05:21:26.257Z,-0.28
2019-02-23T05:23:53.580Z,-0.31
2019-02-23T05:26:24.338Z,-0.29
2019-02-23T05:28:53.667Z,-0.18
2019-02-23T05:31:23.635Z,-0.13
2019-02-23T05:33:55.742Z,-0.07
2019-02-23T05:36:24.931Z,-0.12
2019-02-23T05:38:54.183Z,-0.22
2019-02-23T05:41:23.000Z,-0.22
2019-02-23T05:43:56.402Z,-0.25
2019-02-23T05:46:27.708Z,-0.30
2019-02-23T05:48:58.863Z,-0.53
2019-02-23T05:51:38.373Z,-0.46
2019-02-23T05:53:58.379Z,-0.51
2019-02-23T05:56:31.104Z,-0.56
2019-02-23T05:59:04.685Z,-0.56
2019-02-23T06:01:33.238Z,-0.58
2019-02-23T06:04:06.853Z,-0.54
2019-02-23T06:06:35.750Z,-0.62
2019-02-23T06:09:07.357Z,-0.75
2019-02-23T06:11:38.861Z,-0.80
2019-02-23T06:14:09.360Z,-0.80
2019-02-23T06:16:43.024Z,-0.87
2019-02-23T06:19:16.477Z,-0.97
2019-02-23T06:21:53.582Z,-0.99
2019-02-23T06:24:18.985Z,-1.03
2019-02-23T06:26:49.918Z,-0.96
2019-02-23T06:29:21.327Z,-0.97
2019-02-23T06:31:53.453Z,-0.88
2019-02-23T06:34:23.964Z,-0.82
2019-02-23T06:36:54.294Z,-0.80
2019-02-23T06:39:27.611Z,-0.81
2019-02-23T06:41:56.700Z,-0.82
2019-02-23T06:44:25.566Z,-0.81
2019-02-23T06:46:54.458Z,-0.78
2019-02-23T06:49:25.940Z,-0.72
2019-02-23T06:52:04.256Z,-0.72
2019-02-23T06:54:34.143Z,-0.73
2019-02-23T06:57:04.390Z,-0.67
2019-02-23T06:59:33.773Z,-0.59
2019-02-23T07:02:07.222Z,-0.53
2019-02-23T07:04:36.734Z,-0.41
2019-02-23T07:07:08.592Z,-0.34
2019-02-23T07:09:40.834Z,-0.21
2019-02-23T07:12:13.050Z,-0.08
2019-02-23T07:14:43.683Z,0.00
2019-02-23T07:17:20.245Z,0.12
2019-02-23T07:19:51.078Z,0.24
2019-02-23T07:22:21.750Z,0.33
2019-02-23T07:24:52.283Z,0.33
2019-02-23T07:27:23.579Z,0.42
2019-02-23T07:29:54.234Z,0.45
2019-02-23T07:32:24.801Z,0.53
2019-02-23T07:34:55.521Z,0.65
2019-02-23T07:37:26.018Z,0.77
2019-02-23T07:39:54.949Z,0.94
2019-02-23T07:42:25.278Z,1.10
2019-02-23T07:44:53.901Z,1.12
2019-02-23T07:47:29.068Z,1.16
2019-02-23T07:50:01.529Z,1.19
2019-02-23T07:52:32.260Z,1.28
2019-02-23T07:55:04.415Z,1.43
2019-02-23T07:57:33.804Z,1.72
2019-02-23T08:00:02.353Z,1.99
2019-02-23T08:02:31.151Z,2.30
2019-02-23T08:04:59.812Z,2.52
2019-02-23T08:07:32.163Z,2.68
2019-02-23T08:10:05.979Z,2.81
2019-02-23T08:12:36.348Z,2.88
2019-02-23T08:15:12.533Z,2.91
2019-02-23T08:17:43.322Z,2.95
2019-02-23T08:20:12.457Z,3.06
2019-02-23T08:22:42.743Z,3.02
2019-02-23T08:25:11.960Z,2.94
2019-02-23T08:27:41.560Z,3.00
2019-02-23T08:30:11.830Z,3.07
2019-02-23T08:32:44.920Z,3.08
2019-02-23T08:35:18.967Z,3.03
2019-02-23T08:37:53.900Z,3.06
2019-02-23T08:40:22.820Z,3.18
2019-02-23T08:42:51.893Z,3.25
2019-02-23T08:45:22.142Z,3.27
2019-02-23T08:47:51.113Z,3.36
2019-02-23T08:50:23.118Z,3.32
2019-02-23T08:52:54.015Z,3.46
2019-02-23T08:55:27.706Z,3.51
2019-02-23T08:57:56.607Z,3.58
2019-02-23T09:00:25.384Z,3.65
2019-02-23T09:02:53.941Z,3.74
2019-02-23T09:05:27.407Z,3.81
2019-02-23T09:08:02.496Z,3.77
2019-02-23T09:10:31.613Z,3.85
2019-02-23T09:13:00.538Z,3.96
2019-02-23T09:15:32.189Z,3.90
2019-02-23T09:18:01.138Z,4.05
2019-02-23T09:20:30.211Z,4.19
2019-02-23T09:23:01.694Z,4.29
2019-02-23T09:25:30.473Z,4.28
2019-02-23T09:28:02.601Z,4.41
2019-02-23T09:30:31.294Z,4.40
2019-02-23T09:32:59.844Z,4.39
2019-02-23T09:36:14.993Z,4.46
2019-02-23T09:39:24.394Z,4.57
2019-02-23T09:42:23.764Z,4.73
2019-02-23T09:45:29.042Z,4.77
2019-02-23T09:48:24.959Z,4.90
2019-02-23T09:51:18.834Z,4.87
2019-02-23T09:54:30.732Z,4.93
2019-02-23T09:57:42.337Z,4.96
2019-02-23T10:00:11.405Z,4.94
2019-02-23T10:02:43.868Z,4.97
2019-02-23T10:05:16.072Z,5.03
2019-02-23T10:07:46.011Z,5.05
2019-02-23T10:10:14.990Z,5.20
2019-02-23T10:12:44.237Z,5.31
2019-02-23T10:15:16.152Z,5.34
2019-02-23T10:17:44.709Z,5.46
2019-02-23T10:20:15.170Z,5.61
2019-02-23T10:22:43.886Z,5.58
2019-02-23T10:25:13.028Z,5.59
2019-02-23T10:27:44.793Z,5.61
2019-02-23T10:30:34.662Z,5.78
2019-02-23T10:33:03.209Z,5.75
2019-02-23T10:35:32.343Z,5.82
2019-02-23T10:38:04.506Z,5.74
2019-02-23T10:40:35.465Z,5.85
2019-02-23T10:43:07.817Z,5.99
2019-02-23T10:45:38.555Z,5.85
2019-02-23T10:48:07.458Z,6.04
2019-02-23T10:50:38.815Z,6.19
2019-02-23T10:53:11.182Z,6.23
2019-02-23T10:55:42.825Z,6.37
2019-02-23T10:58:13.355Z,6.46
2019-02-23T11:00:43.899Z,6.67
2019-02-23T11:03:13.065Z,6.94
2019-02-23T11:05:43.719Z,6.88
2019-02-23T11:08:15.528Z,7.04
2019-02-23T11:10:44.637Z,6.91
2019-02-23T11:13:13.860Z,7.02
2019-02-23T11:15:43.053Z,7.01
2019-02-23T11:18:16.674Z,7.04
2019-02-23T11:20:48.783Z,7.08
2019-02-23T11:23:19.477Z,7.13
2019-02-23T11:25:48.370Z,7.10
2019-02-23T11:28:17.598Z,7.33
2019-02-23T11:30:47.877Z,7.57
2019-02-23T11:33:19.169Z,7.76
2019-02-23T11:35:48.141Z,7.76
2019-02-23T11:38:18.029Z,7.84
2019-02-23T11:40:48.133Z,7.84
2019-02-23T11:43:20.452Z,7.85
2019-02-23T11:45:49.365Z,7.89
2019-02-23T11:48:19.953Z,7.89
2019-02-23T11:50:53.838Z,7.70
2019-02-23T11:53:24.618Z,7.62
2019-02-23T11:55:53.187Z,7.73
2019-02-23T11:58:22.092Z,7.77
2019-02-23T12:00:52.466Z,7.80
2019-02-23T12:03:24.085Z,7.84
2019-02-23T12:05:54.520Z,7.93
2019-02-23T12:08:23.569Z,7.89
2019-02-23T12:10:52.469Z,7.99
2019-02-23T12:13:22.442Z,8.12
2019-02-23T12:15:51.174Z,8.31
2019-02-23T12:18:20.084Z,8.36
2019-02-23T12:20:49.001Z,8.41
2019-02-23T12:23:21.267Z,8.53
2019-02-23T12:25:50.025Z,8.50
2019-02-23T12:28:22.431Z,8.45
2019-02-23T12:30:54.154Z,8.46
2019-02-23T12:33:22.758Z,8.43
2019-02-23T12:35:53.349Z,8.30
2019-02-23T12:38:23.630Z,8.16
2019-02-23T12:40:56.178Z,8.11
2019-02-23T12:43:29.682Z,8.19
2019-02-23T12:45:59.861Z,8.19
2019-02-23T12:48:30.799Z,8.28
2019-02-23T12:50:59.715Z,8.36
2019-02-23T12:53:29.026Z,8.33
2019-02-23T12:56:03.940Z,8.35
2019-02-23T12:58:32.710Z,8.38
2019-02-23T13:01:06.333Z,8.51
2019-02-23T13:03:35.593Z,8.60
2019-02-23T13:06:04.317Z,8.61
2019-02-23T13:09:08.818Z,8.70
2019-02-23T13:11:38.988Z,8.63
2019-02-23T13:14:56.506Z,8.48
2019-02-23T13:18:01.124Z,8.38
2019-02-23T13:20:48.185Z,8.38
2019-02-23T13:23:48.499Z,8.33
2019-02-23T13:26:43.763Z,8.33
2019-02-23T13:29:37.565Z,8.40
2019-02-23T13:32:49.795Z,8.43
2019-02-23T13:35:55.169Z,8.52
2019-02-23T13:39:05.761Z,8.69
2019-02-23T13:41:58.102Z,8.64
2019-02-23T13:44:55.882Z,8.81
2019-02-23T13:47:59.392Z,8.79
2019-02-23T13:50:47.400Z,8.81
2019-02-23T13:53:53.575Z,8.73
2019-02-23T13:56:56.672Z,8.72
2019-02-23T13:59:50.462Z,8.80
2019-02-23T14:02:59.797Z,8.79
2019-02-23T14:05:54.175Z,8.90
2019-02-23T14:08:46.830Z,9.02
2019-02-23T14:11:52.163Z,9.03
2019-02-23T14:14:30.697Z,9.20
2019-02-23T14:17:34.954Z,9.20
2019-02-23T14:20:53.300Z,9.34
2019-02-23T14:24:04.985Z,9.36
2019-02-23T14:27:11.099Z,9.40
2019-02-23T14:30:19.576Z,9.26
2019-02-23T14:33:10.324Z,9.00
2019-02-23T14:36:01.565Z,8.98
2019-02-23T14:39:10.172Z,8.98
2019-02-23T14:41:55.661Z,8.95
2019-02-23T14:44:50.439Z,8.88
2019-02-23T14:47:53.034Z,8.89
2019-02-23T14:50:54.004Z,8.87
2019-02-23T14:53:59.905Z,8.88
2019-02-23T14:57:02.932Z,8.83
2019-02-23T15:00:01.765Z,8.78
2019-02-23T15:03:04.632Z,8.77
2019-02-23T15:05:58.037Z,8.81
2019-02-23T15:08:42.348Z,8.85
2019-02-23T15:11:47.770Z,8.99
2019-02-23T15:14:51.268Z,9.04
2019-02-23T15:18:01.457Z,9.15
2019-02-23T15:21:05.430Z,9.27
2019-02-23T15:24:04.494Z,9.40
2019-02-23T15:27:09.090Z,9.39
2019-02-23T15:30:02.400Z,9.42
2019-02-23T15:33:05.982Z,9.38
2019-02-23T15:36:08.668Z,9.41
2019-02-23T15:39:14.308Z,9.43
2019-02-23T15:42:13.384Z,9.48
2019-02-23T15:45:22.220Z,9.50
2019-02-23T15:48:13.394Z,9.43
2019-02-23T15:50:45.265Z,9.59
2019-02-23T15:53:14.550Z,9.66
2019-02-23T15:55:45.117Z,9.70
2019-02-23T15:58:13.686Z,9.70
2019-02-23T16:00:42.730Z,9.67
2019-02-23T16:03:13.905Z,9.60
2019-02-23T16:05:46.185Z,9.56
2019-02-23T16:08:16.352Z,9.56
2019-02-23T16:10:45.042Z,9.56
2019-02-23T16:13:18.761Z,9.51
2019-02-23T16:15:47.076Z,9.43
2019-02-23T16:18:17.495Z,9.35
2019-02-23T16:20:46.415Z,9.32
2019-02-23T16:23:16.374Z,9.21
2019-02-23T16:25:47.077Z,9.14
2019-02-23T16:28:15.688Z,9.01
2019-02-23T16:30:50.930Z,8.91
2019-02-23T16:33:20.318Z,8.74
2019-02-23T16:35:51.711Z,8.60
2019-02-23T16:38:20.593Z,8.58
2019-02-23T16:40:50.471Z,8.35
2019-02-23T16:43:22.239Z,8.35
2019-02-23T16:45:52.178Z,8.22
2019-02-23T16:48:25.942Z,8.11
2019-02-23T16:50:56.148Z,7.94
2019-02-23T16:53:26.976Z,7.77
2019-02-23T16:55:56.239Z,7.51
2019-02-23T16:58:25.881Z,7.28
2019-02-23T17:00:59.060Z,7.10
2019-02-23T17:03:29.595Z,6.96
2019-02-23T17:05:59.498Z,6.92
2019-02-23T17:08:30.377Z,6.92
2019-02-23T17:11:01.229Z,6.85
2019-02-23T17:13:31.337Z,6.76
2019-02-23T17:16:00.721Z,6.65
2019-02-23T17:18:34.319Z,6.57
2019-02-23T17:21:06.262Z,6.53
2019-02-23T17:23:36.795Z,6.37
2019-02-23T17:26:11.698Z,6.18
2019-02-23T17:28:41.046Z,6.06
2019-02-23T17:31:12.077Z,5.97
2019-02-23T17:33:40.646Z,5.93
2019-02-23T17:36:10.054Z,5.84
2019-02-23T17:38:38.636Z,5.68
2019-02-23T17:41:13.298Z,5.48
2019-02-23T17:43:48.915Z,5.33
2019-02-23T17:46:23.115Z,5.20
2019-02-23T17:48:52.585Z,5.13
2019-02-23T17:51:26.273Z,5.08
2019-02-23T17:53:56.722Z,4.93
2019-02-23T17:56:27.195Z,4.86
2019-02-23T17:59:01.018Z,4.74
2019-02-23T18:01:35.839Z,4.75
2019-02-23T18:04:06.500Z,4.68
2019-02-23T18:06:35.348Z,4.66
2019-02-23T18:09:05.769Z,4.61
2019-02-23T18:11:36.982Z,4.53
2019-02-23T18:14:05.934Z,4.50
2019-02-23T18:16:39.060Z,4.57
2019-02-23T18:19:08.577Z,4.48
2019-02-23T18:21:39.865Z,4.38
2019-02-23T18:24:19.126Z,4.25
2019-02-23T18:26:48.081Z,4.20
2019-02-23T18:29:18.497Z,4.21
2019-02-23T18:31:47.429Z,4.20
2019-02-23T18:34:21.042Z,4.13
2019-02-23T18:36:50.207Z,4.10
2019-02-23T18:39:19.297Z,4.12
2019-02-23T18:41:48.212Z,4.17
2019-02-23T18:44:25.701Z,4.10
2019-02-23T18:46:54.807Z,4.15
2019-02-23T18:49:23.377Z,4.09
2019-02-23T18:51:54.577Z,3.93
2019-02-23T18:54:25.674Z,3.78
2019-02-23T18:56:57.917Z,3.69
2019-02-23T18:59:28.889Z,3.55
2019-02-23T19:01:57.961Z,3.52
2019-02-23T19:04:30.294Z,3.49
2019-02-23T19:07:02.312Z,3.43
2019-02-23T19:09:33.823Z,3.38
2019-02-23T19:12:06.567Z,3.32
2019-02-23T19:14:41.731Z,3.31
2019-02-23T19:17:11.627Z,3.29
2019-02-23T19:19:44.972Z,3.34
2019-02-23T19:22:15.519Z,3.35
2019-02-23T19:24:45.141Z,3.34
2019-02-23T19:27:17.944Z,3.34
2019-02-23T19:29:52.888Z,3.27
2019-02-23T19:32:23.178Z,3.19
2019-02-23T19:34:56.385Z,3.18
2019-02-23T19:37:26.591Z,3.15
2019-02-23T19:39:58.463Z,3.13
2019-02-23T19:42:29.439Z,3.11
2019-02-23T19:45:03.558Z,3.05
2019-02-23T19:47:36.097Z,2.93
2019-02-23T19:50:17.228Z,2.86
2019-02-23T19:52:50.276Z,2.85
2019-02-23T19:55:20.847Z,2.88
2019-02-23T19:57:52.695Z,2.79
2019-02-23T20:00:24.932Z,2.79
2019-02-23T20:02:53.668Z,2.69
2019-02-23T20:05:22.409Z,2.60
2019-02-23T20:07:56.380Z,2.50
2019-02-23T20:10:27.257Z,2.37
2019-02-23T20:12:56.007Z,2.26
2019-02-23T20:15:24.872Z,2.31
2019-02-23T20:17:55.158Z,2.31
2019-02-23T20:20:25.458Z,2.42
2019-02-23T20:22:54.180Z,2.37
2019-02-23T20:25:26.124Z,2.31
2019-02-23T20:27:59.549Z,2.29
2019-02-23T20:30:34.701Z,2.22
2019-02-23T20:33:06.641Z,2.26
2019-02-23T20:35:38.446Z,2.21
2019-02-23T20:38:12.068Z,2.12
2019-02-23T20:40:46.819Z,2.13
2019-02-23T20:43:19.739Z,2.12
2019-02-23T20:45:51.752Z,2.08
2019-02-23T20:48:23.813Z,2.02
2019-02-23T20:50:56.145Z,1.96
2019-02-23T20:53:30.499Z,1.88
2019-02-23T20:56:01.405Z,1.82
2019-02-23T20:58:33.641Z,1.81
2019-02-23T21:01:02.706Z,1.76
2019-02-23T21:03:39.081Z,1.78
2019-02-23T21:06:09.543Z,1.73
2019-02-23T21:08:38.355Z,1.71
2019-02-23T21:11:08.956Z,1.73
2019-02-23T21:13:39.656Z,1.70
2019-02-23T21:16:12.765Z,1.61
2019-02-23T21:18:44.195Z,1.52
2019-02-23T21:21:14.419Z,1.47
2019-02-23T21:23:46.813Z,1.41
2019-02-23T21:26:22.966Z,1.39
2019-02-23T21:28:53.724Z,1.35
2019-02-23T21:31:23.853Z,1.37
2019-02-23T21:33:58.037Z,1.39
2019-02-23T21:36:28.449Z,1.32
2019-02-23T21:39:00.423Z,1.28
2019-02-23T21:41:31.521Z,1.23
2019-02-23T21:44:05.488Z,1.14
2019-02-23T21:46:34.499Z,1.12
2019-02-23T21:49:03.590Z,1.15
2019-02-23T21:51:36.670Z,1.08
2019-02-23T21:54:10.153Z,1.05
2019-02-23T21:56:45.217Z,1.02
2019-02-23T21:59:22.032Z,0.99
2019-02-23T22:01:51.020Z,1.01
2019-02-23T22:04:23.042Z,0.99
2019-02-23T22:06:52.343Z,1.00
2019-02-23T22:09:25.630Z,1.04
2019-02-23T22:11:58.999Z,1.10
2019-02-23T22:14:29.866Z,1.00
2019-02-23T22:17:01.795Z,0.98
2019-02-23T22:19:34.211Z,0.96
2019-02-23T22:22:03.533Z,0.99
2019-02-23T22:24:36.385Z,0.95
2019-02-23T22:27:06.645Z,0.94
2019-02-23T22:29:37.380Z,0.94
2019-02-23T22:32:06.242Z,0.96
2019-02-23T22:34:36.555Z,0.96
2019-02-23T22:37:10.008Z,0.99
2019-02-23T22:39:42.517Z,1.00
2019-02-23T22:42:13.091Z,1.01
2019-02-23T22:44:45.566Z,1.03
2019-02-23T22:47:35.425Z,1.01
2019-02-23T22:50:06.829Z,0.97
2019-02-23T22:52:37.684Z,0.85
2019-02-23T22:55:07.106Z,0.75
2019-02-23T22:57:45.423Z,0.66
2019-02-23T23:00:18.084Z,0.58
2019-02-23T23:02:49.852Z,0.55
2019-02-23T23:05:23.253Z,0.48
2019-02-23T23:07:56.594Z,0.37
2019-02-23T23:10:26.856Z,0.28
2019-02-23T23:13:00.461Z,0.21
2019-02-23T23:15:34.388Z,0.17
2019-02-23T23:18:04.959Z,0.21
2019-02-23T23:20:38.221Z,0.27
2019-02-23T23:23:10.038Z,0.25
2019-02-23T23:25:39.398Z,0.25
2019-02-23T23:28:11.781Z,0.23
2019-02-23T23:30:41.736Z,0.24
2019-02-23T23:33:12.315Z,0.28
2019-02-23T23:35:42.419Z,0.33
2019-02-23T23:38:13.169Z,0.33
2019-02-23T23:40:45.667Z,0.38
2019-02-23T23:43:19.721Z,0.33
2019-02-23T23:45:50.619Z,0.36
2019-02-23T23:48:22.767Z,0.41
2019-02-23T23:50:51.493Z,0.44
2019-02-23T23:53:21.428Z,0.40
2019-02-23T23:55:57.635Z,0.34
2019-02-23T23:58:27.048Z,0.31
